sensor_id;sensor_type;location;lat;lon;timestamp;P1;durP1;ratioP1;P2;durP2;ratioP2
35917;SDS011;22011;59.912;30.300;2023-02-02T00:01:18;4.65;;;2.30;;
35917;SDS011;22011;59.912;30.300;2023-02-02T00:03:47;6.47;;;2.83;;
35917;SDS011;22011;59.912;30.300;2023-02-02T00:06:17;5.65;;;2.70;;
35917;SDS011;22011;59.912;30.300;2023-02-02T00:08:45;4.30;;;2.40;;
35917;SDS011;22011;59.912;30.300;2023-02-02T00:11:13;4.90;;;2.13;;
35917;SDS011;22011;59.912;30.300;2023-02-02T00:13:41;4.30;;;2.45;;
35917;SDS011;22011;59.912;30.300;2023-02-02T00:19:08;4.13;;;3.08;;
35917;SDS011;22011;59.912;30.300;2023-02-02T00:21:39;4.05;;;2.33;;
35917;SDS011;22011;59.912;30.300;2023-02-02T00:24:07;4.97;;;2.65;;
35917;SDS011;22011;59.912;30.300;2023-02-02T00:26:36;4.38;;;2.80;;
35917;SDS011;22011;59.912;30.300;2023-02-02T00:29:05;4.68;;;2.63;;
35917;SDS011;22011;59.912;30.300;2023-02-02T00:31:33;3.95;;;2.63;;
35917;SDS011;22011;59.912;30.300;2023-02-02T00:34:01;4.88;;;2.90;;
35917;SDS011;22011;59.912;30.300;2023-02-02T00:36:29;4.97;;;2.83;;
35917;SDS011;22011;59.912;30.300;2023-02-02T00:38:57;3.85;;;2.78;;
35917;SDS011;22011;59.912;30.300;2023-02-02T00:41:25;7.07;;;2.72;;
35917;SDS011;22011;59.912;30.300;2023-02-02T00:43:52;6.78;;;3.55;;
35917;SDS011;22011;59.912;30.300;2023-02-02T00:46:34;5.10;;;3.13;;
35917;SDS011;22011;59.912;30.300;2023-02-02T00:49:05;6.05;;;3.50;;
35917;SDS011;22011;59.912;30.300;2023-02-02T00:51:33;5.25;;;4.00;;
35917;SDS011;22011;59.912;30.300;2023-02-02T00:54:02;7.10;;;4.88;;
35917;SDS011;22011;59.912;30.300;2023-02-02T00:56:30;6.68;;;4.38;;
35917;SDS011;22011;59.912;30.300;2023-02-02T00:58:58;7.85;;;5.07;;
35917;SDS011;22011;59.912;30.300;2023-02-02T01:01:26;10.32;;;5.15;;
35917;SDS011;22011;59.912;30.300;2023-02-02T01:03:54;10.57;;;6.25;;
35917;SDS011;22011;59.912;30.300;2023-02-02T01:06:22;7.80;;;5.95;;
35917;SDS011;22011;59.912;30.300;2023-02-02T01:08:49;7.50;;;5.57;;
35917;SDS011;22011;59.912;30.300;2023-02-02T01:11:18;7.82;;;5.53;;
35917;SDS011;22011;59.912;30.300;2023-02-02T01:13:46;6.88;;;5.13;;
35917;SDS011;22011;59.912;30.300;2023-02-02T01:16:14;8.82;;;5.90;;
35917;SDS011;22011;59.912;30.300;2023-02-02T01:18:42;8.73;;;5.63;;
35917;SDS011;22011;59.912;30.300;2023-02-02T01:21:10;8.60;;;6.00;;
35917;SDS011;22011;59.912;30.300;2023-02-02T01:23:38;11.07;;;5.72;;
35917;SDS011;22011;59.912;30.300;2023-02-02T01:26:06;6.57;;;4.55;;
35917;SDS011;22011;59.912;30.300;2023-02-02T01:28:36;9.18;;;5.22;;
35917;SDS011;22011;59.912;30.300;2023-02-02T01:31:05;7.82;;;4.75;;
35917;SDS011;22011;59.912;30.300;2023-02-02T01:33:34;11.27;;;5.10;;
35917;SDS011;22011;59.912;30.300;2023-02-02T01:36:03;9.40;;;5.20;;
35917;SDS011;22011;59.912;30.300;2023-02-02T01:38:32;6.93;;;4.68;;
35917;SDS011;22011;59.912;30.300;2023-02-02T01:41:00;6.72;;;4.32;;
35917;SDS011;22011;59.912;30.300;2023-02-02T01:43:29;7.80;;;4.80;;
35917;SDS011;22011;59.912;30.300;2023-02-02T01:46:19;7.40;;;4.55;;
35917;SDS011;22011;59.912;30.300;2023-02-02T01:48:49;7.50;;;4.55;;
35917;SDS011;22011;59.912;30.300;2023-02-02T01:51:23;6.32;;;4.57;;
35917;SDS011;22011;59.912;30.300;2023-02-02T01:53:56;6.97;;;4.47;;
35917;SDS011;22011;59.912;30.300;2023-02-02T01:56:25;5.53;;;4.68;;
35917;SDS011;22011;59.912;30.300;2023-02-02T01:58:56;6.57;;;4.63;;
35917;SDS011;22011;59.912;30.300;2023-02-02T02:01:26;5.53;;;4.85;;
35917;SDS011;22011;59.912;30.300;2023-02-02T02:03:53;6.57;;;4.80;;
35917;SDS011;22011;59.912;30.300;2023-02-02T02:06:22;8.38;;;5.13;;
35917;SDS011;22011;59.912;30.300;2023-02-02T02:08:52;8.50;;;4.32;;
35917;SDS011;22011;59.912;30.300;2023-02-02T02:11:22;7.15;;;4.57;;
35917;SDS011;22011;59.912;30.300;2023-02-02T02:13:50;5.30;;;4.32;;
35917;SDS011;22011;59.912;30.300;2023-02-02T02:16:43;8.68;;;4.00;;
35917;SDS011;22011;59.912;30.300;2023-02-02T02:19:31;8.02;;;4.45;;
35917;SDS011;22011;59.912;30.300;2023-02-02T02:22:50;8.63;;;4.40;;
35917;SDS011;22011;59.912;30.300;2023-02-02T02:25:59;6.25;;;4.25;;
35917;SDS011;22011;59.912;30.300;2023-02-02T02:29:10;7.03;;;4.32;;
35917;SDS011;22011;59.912;30.300;2023-02-02T02:32:06;7.47;;;4.40;;
35917;SDS011;22011;59.912;30.300;2023-02-02T02:34:47;5.25;;;4.07;;
35917;SDS011;22011;59.912;30.300;2023-02-02T02:37:26;6.25;;;3.80;;
35917;SDS011;22011;59.912;30.300;2023-02-02T02:40:00;7.38;;;3.75;;
35917;SDS011;22011;59.912;30.300;2023-02-02T02:42:35;6.10;;;4.05;;
35917;SDS011;22011;59.912;30.300;2023-02-02T02:45:06;5.38;;;3.50;;
35917;SDS011;22011;59.912;30.300;2023-02-02T02:47:37;3.92;;;3.20;;
35917;SDS011;22011;59.912;30.300;2023-02-02T02:50:07;4.38;;;3.28;;
35917;SDS011;22011;59.912;30.300;2023-02-02T02:52:36;7.60;;;3.42;;
35917;SDS011;22011;59.912;30.300;2023-02-02T02:55:05;5.78;;;3.22;;
35917;SDS011;22011;59.912;30.300;2023-02-02T02:57:40;4.95;;;3.42;;
35917;SDS011;22011;59.912;30.300;2023-02-02T03:00:23;7.53;;;3.45;;
35917;SDS011;22011;59.912;30.300;2023-02-02T03:03:18;6.80;;;3.38;;
35917;SDS011;22011;59.912;30.300;2023-02-02T03:05:55;6.50;;;3.58;;
35917;SDS011;22011;59.912;30.300;2023-02-02T03:08:31;9.30;;;4.22;;
35917;SDS011;22011;59.912;30.300;2023-02-02T03:11:02;5.75;;;3.58;;
35917;SDS011;22011;59.912;30.300;2023-02-02T03:13:31;6.30;;;3.33;;
35917;SDS011;22011;59.912;30.300;2023-02-02T03:15:59;4.85;;;3.20;;
35917;SDS011;22011;59.912;30.300;2023-02-02T03:18:29;5.55;;;3.88;;
35917;SDS011;22011;59.912;30.300;2023-02-02T03:20:58;6.00;;;3.58;;
35917;SDS011;22011;59.912;30.300;2023-02-02T03:23:26;5.45;;;3.80;;
35917;SDS011;22011;59.912;30.300;2023-02-02T03:25:53;6.05;;;3.80;;
35917;SDS011;22011;59.912;30.300;2023-02-02T03:28:22;9.25;;;4.32;;
35917;SDS011;22011;59.912;30.300;2023-02-02T03:30:51;5.80;;;4.27;;
35917;SDS011;22011;59.912;30.300;2023-02-02T03:33:20;5.43;;;4.00;;
35917;SDS011;22011;59.912;30.300;2023-02-02T03:35:49;6.18;;;4.40;;
35917;SDS011;22011;59.912;30.300;2023-02-02T03:38:17;10.07;;;4.18;;
35917;SDS011;22011;59.912;30.300;2023-02-02T03:40:44;5.38;;;3.97;;
35917;SDS011;22011;59.912;30.300;2023-02-02T03:43:12;5.85;;;3.65;;
35917;SDS011;22011;59.912;30.300;2023-02-02T03:45:40;7.38;;;5.05;;
35917;SDS011;22011;59.912;30.300;2023-02-02T03:48:07;6.70;;;4.35;;
35917;SDS011;22011;59.912;30.300;2023-02-02T03:50:35;8.35;;;4.25;;
35917;SDS011;22011;59.912;30.300;2023-02-02T03:53:04;7.10;;;4.22;;
35917;SDS011;22011;59.912;30.300;2023-02-02T03:55:32;5.03;;;3.63;;
35917;SDS011;22011;59.912;30.300;2023-02-02T03:57:59;8.90;;;4.93;;
35917;SDS011;22011;59.912;30.300;2023-02-02T04:00:27;9.10;;;4.55;;
35917;SDS011;22011;59.912;30.300;2023-02-02T04:02:54;6.80;;;5.05;;
35917;SDS011;22011;59.912;30.300;2023-02-02T04:05:22;8.88;;;4.70;;
35917;SDS011;22011;59.912;30.300;2023-02-02T04:07:49;6.90;;;5.10;;
35917;SDS011;22011;59.912;30.300;2023-02-02T04:10:18;5.63;;;4.18;;
35917;SDS011;22011;59.912;30.300;2023-02-02T04:12:46;7.30;;;4.43;;
35917;SDS011;22011;59.912;30.300;2023-02-02T04:15:13;8.68;;;4.90;;
35917;SDS011;22011;59.912;30.300;2023-02-02T04:17:41;7.93;;;4.57;;
35917;SDS011;22011;59.912;30.300;2023-02-02T04:20:09;7.03;;;4.32;;
35917;SDS011;22011;59.912;30.300;2023-02-02T04:22:37;8.05;;;4.43;;
35917;SDS011;22011;59.912;30.300;2023-02-02T04:25:05;6.90;;;4.82;;
35917;SDS011;22011;59.912;30.300;2023-02-02T04:27:34;7.05;;;4.20;;
35917;SDS011;22011;59.912;30.300;2023-02-02T04:30:02;10.02;;;4.30;;
35917;SDS011;22011;59.912;30.300;2023-02-02T04:32:30;8.95;;;4.00;;
35917;SDS011;22011;59.912;30.300;2023-02-02T04:34:58;7.47;;;3.95;;
35917;SDS011;22011;59.912;30.300;2023-02-02T04:37:25;8.48;;;4.20;;
35917;SDS011;22011;59.912;30.300;2023-02-02T04:39:53;6.35;;;4.15;;
35917;SDS011;22011;59.912;30.300;2023-02-02T04:42:20;13.32;;;4.35;;
35917;SDS011;22011;59.912;30.300;2023-02-02T04:44:49;6.32;;;3.60;;
35917;SDS011;22011;59.912;30.300;2023-02-02T04:47:17;5.15;;;3.13;;
35917;SDS011;22011;59.912;30.300;2023-02-02T04:49:44;6.20;;;3.25;;
35917;SDS011;22011;59.912;30.300;2023-02-02T04:52:12;4.97;;;3.42;;
35917;SDS011;22011;59.912;30.300;2023-02-02T04:54:39;7.25;;;3.97;;
35917;SDS011;22011;59.912;30.300;2023-02-02T04:57:06;7.00;;;3.63;;
35917;SDS011;22011;59.912;30.300;2023-02-02T04:59:34;9.32;;;3.38;;
35917;SDS011;22011;59.912;30.300;2023-02-02T05:02:03;7.80;;;3.72;;
35917;SDS011;22011;59.912;30.300;2023-02-02T05:04:30;9.43;;;3.75;;
35917;SDS011;22011;59.912;30.300;2023-02-02T05:06:58;8.07;;;4.00;;
35917;SDS011;22011;59.912;30.300;2023-02-02T05:09:25;8.43;;;3.90;;
35917;SDS011;22011;59.912;30.300;2023-02-02T05:11:53;6.13;;;3.95;;
35917;SDS011;22011;59.912;30.300;2023-02-02T05:14:20;8.18;;;3.95;;
35917;SDS011;22011;59.912;30.300;2023-02-02T05:16:48;9.07;;;3.70;;
35917;SDS011;22011;59.912;30.300;2023-02-02T05:19:17;12.05;;;4.60;;
35917;SDS011;22011;59.912;30.300;2023-02-02T05:21:44;10.50;;;4.43;;
35917;SDS011;22011;59.912;30.300;2023-02-02T05:24:13;9.13;;;4.57;;
35917;SDS011;22011;59.912;30.300;2023-02-02T05:26:41;11.40;;;4.93;;
35917;SDS011;22011;59.912;30.300;2023-02-02T05:29:08;7.13;;;4.28;;
35917;SDS011;22011;59.912;30.300;2023-02-02T05:31:36;7.72;;;4.60;;
35917;SDS011;22011;59.912;30.300;2023-02-02T05:34:03;9.93;;;4.25;;
35917;SDS011;22011;59.912;30.300;2023-02-02T05:36:33;6.78;;;4.18;;
35917;SDS011;22011;59.912;30.300;2023-02-02T05:39:00;7.47;;;4.93;;
35917;SDS011;22011;59.912;30.300;2023-02-02T05:41:28;8.15;;;5.47;;
35917;SDS011;22011;59.912;30.300;2023-02-02T05:43:57;17.95;;;6.22;;
35917;SDS011;22011;59.912;30.300;2023-02-02T05:46:25;10.03;;;5.43;;
35917;SDS011;22011;59.912;30.300;2023-02-02T05:48:52;9.80;;;5.60;;
35917;SDS011;22011;59.912;30.300;2023-02-02T05:51:20;18.05;;;6.82;;
35917;SDS011;22011;59.912;30.300;2023-02-02T05:53:52;13.02;;;6.72;;
35917;SDS011;22011;59.912;30.300;2023-02-02T05:56:20;9.40;;;5.75;;
35917;SDS011;22011;59.912;30.300;2023-02-02T05:58:48;14.68;;;6.32;;
35917;SDS011;22011;59.912;30.300;2023-02-02T06:01:16;8.77;;;5.72;;
35917;SDS011;22011;59.912;30.300;2023-02-02T06:03:44;7.70;;;5.55;;
35917;SDS011;22011;59.912;30.300;2023-02-02T06:06:11;12.00;;;6.18;;
35917;SDS011;22011;59.912;30.300;2023-02-02T06:08:39;11.50;;;5.53;;
35917;SDS011;22011;59.912;30.300;2023-02-02T06:11:09;12.05;;;5.60;;
35917;SDS011;22011;59.912;30.300;2023-02-02T06:13:36;8.73;;;5.10;;
35917;SDS011;22011;59.912;30.300;2023-02-02T06:16:04;10.48;;;6.10;;
35917;SDS011;22011;59.912;30.300;2023-02-02T06:18:32;10.68;;;5.38;;
35917;SDS011;22011;59.912;30.300;2023-02-02T06:21:01;9.20;;;5.55;;
35917;SDS011;22011;59.912;30.300;2023-02-02T06:23:30;10.10;;;5.75;;
35917;SDS011;22011;59.912;30.300;2023-02-02T06:25:58;8.82;;;5.72;;
35917;SDS011;22011;59.912;30.300;2023-02-02T06:28:30;13.32;;;6.15;;
35917;SDS011;22011;59.912;30.300;2023-02-02T06:31:01;13.75;;;7.00;;
35917;SDS011;22011;59.912;30.300;2023-02-02T06:33:30;9.32;;;6.28;;
35917;SDS011;22011;59.912;30.300;2023-02-02T06:35:58;10.27;;;6.70;;
35917;SDS011;22011;59.912;30.300;2023-02-02T06:38:26;14.20;;;6.60;;
35917;SDS011;22011;59.912;30.300;2023-02-02T06:40:54;11.60;;;7.03;;
35917;SDS011;22011;59.912;30.300;2023-02-02T06:43:25;19.58;;;9.32;;
35917;SDS011;22011;59.912;30.300;2023-02-02T06:45:54;11.90;;;7.55;;
35917;SDS011;22011;59.912;30.300;2023-02-02T06:48:23;10.65;;;7.38;;
35917;SDS011;22011;59.912;30.300;2023-02-02T06:50:50;14.70;;;8.18;;
35917;SDS011;22011;59.912;30.300;2023-02-02T06:53:18;17.35;;;8.30;;
35917;SDS011;22011;59.912;30.300;2023-02-02T06:55:51;14.95;;;7.35;;
35917;SDS011;22011;59.912;30.300;2023-02-02T06:58:19;12.45;;;7.63;;
35917;SDS011;22011;59.912;30.300;2023-02-02T07:00:47;18.88;;;8.35;;
35917;SDS011;22011;59.912;30.300;2023-02-02T07:03:16;16.58;;;9.25;;
35917;SDS011;22011;59.912;30.300;2023-02-02T07:05:46;13.57;;;8.65;;
35917;SDS011;22011;59.912;30.300;2023-02-02T07:08:13;12.50;;;7.40;;
35917;SDS011;22011;59.912;30.300;2023-02-02T07:10:41;10.65;;;7.32;;
35917;SDS011;22011;59.912;30.300;2023-02-02T07:13:09;11.70;;;7.53;;
35917;SDS011;22011;59.912;30.300;2023-02-02T07:15:37;11.13;;;7.93;;
35917;SDS011;22011;59.912;30.300;2023-02-02T07:18:05;13.55;;;7.50;;
35917;SDS011;22011;59.912;30.300;2023-02-02T07:20:34;9.77;;;6.82;;
35917;SDS011;22011;59.912;30.300;2023-02-02T07:23:01;12.20;;;6.90;;
35917;SDS011;22011;59.912;30.300;2023-02-02T07:25:29;13.45;;;7.28;;
35917;SDS011;22011;59.912;30.300;2023-02-02T07:27:57;11.15;;;7.07;;
35917;SDS011;22011;59.912;30.300;2023-02-02T07:30:24;11.73;;;7.72;;
35917;SDS011;22011;59.912;30.300;2023-02-02T07:32:54;9.80;;;6.45;;
35917;SDS011;22011;59.912;30.300;2023-02-02T07:35:22;18.08;;;6.30;;
35917;SDS011;22011;59.912;30.300;2023-02-02T07:37:52;10.43;;;6.55;;
35917;SDS011;22011;59.912;30.300;2023-02-02T07:40:20;12.40;;;6.47;;
35917;SDS011;22011;59.912;30.300;2023-02-02T07:42:48;12.88;;;6.68;;
35917;SDS011;22011;59.912;30.300;2023-02-02T07:45:15;10.82;;;7.53;;
35917;SDS011;22011;59.912;30.300;2023-02-02T07:47:43;15.60;;;7.03;;
35917;SDS011;22011;59.912;30.300;2023-02-02T07:50:10;12.27;;;6.82;;
35917;SDS011;22011;59.912;30.300;2023-02-02T07:52:38;11.00;;;6.68;;
35917;SDS011;22011;59.912;30.300;2023-02-02T07:55:07;14.43;;;8.40;;
35917;SDS011;22011;59.912;30.300;2023-02-02T07:57:36;16.42;;;8.05;;
35917;SDS011;22011;59.912;30.300;2023-02-02T08:00:04;14.65;;;7.50;;
35917;SDS011;22011;59.912;30.300;2023-02-02T08:02:38;15.88;;;8.13;;
35917;SDS011;22011;59.912;30.300;2023-02-02T08:05:05;18.13;;;8.30;;
35917;SDS011;22011;59.912;30.300;2023-02-02T08:07:33;16.92;;;7.82;;
35917;SDS011;22011;59.912;30.300;2023-02-02T08:10:01;13.65;;;7.05;;
35917;SDS011;22011;59.912;30.300;2023-02-02T08:12:30;12.82;;;8.15;;
35917;SDS011;22011;59.912;30.300;2023-02-02T08:14:57;20.58;;;7.68;;
35917;SDS011;22011;59.912;30.300;2023-02-02T08:17:25;19.80;;;7.57;;
35917;SDS011;22011;59.912;30.300;2023-02-02T08:19:52;13.07;;;8.07;;
35917;SDS011;22011;59.912;30.300;2023-02-02T08:22:20;12.88;;;6.93;;
35917;SDS011;22011;59.912;30.300;2023-02-02T08:24:47;22.25;;;7.35;;
35917;SDS011;22011;59.912;30.300;2023-02-02T08:27:15;15.13;;;7.22;;
35917;SDS011;22011;59.912;30.300;2023-02-02T08:29:44;12.82;;;6.57;;
35917;SDS011;22011;59.912;30.300;2023-02-02T08:32:12;9.57;;;6.03;;
35917;SDS011;22011;59.912;30.300;2023-02-02T08:34:39;10.27;;;5.95;;
35917;SDS011;22011;59.912;30.300;2023-02-02T08:37:07;12.10;;;6.50;;
35917;SDS011;22011;59.912;30.300;2023-02-02T08:39:35;12.27;;;6.82;;
35917;SDS011;22011;59.912;30.300;2023-02-02T08:42:02;16.00;;;7.25;;
35917;SDS011;22011;59.912;30.300;2023-02-02T08:44:30;13.25;;;7.03;;
35917;SDS011;22011;59.912;30.300;2023-02-02T08:46:59;15.30;;;6.75;;
35917;SDS011;22011;59.912;30.300;2023-02-02T08:49:26;14.10;;;7.18;;
35917;SDS011;22011;59.912;30.300;2023-02-02T08:51:54;12.57;;;7.15;;
35917;SDS011;22011;59.912;30.300;2023-02-02T08:54:21;13.52;;;8.00;;
35917;SDS011;22011;59.912;30.300;2023-02-02T08:56:49;17.55;;;8.50;;
35917;SDS011;22011;59.912;30.300;2023-02-02T08:59:16;13.77;;;7.30;;
35917;SDS011;22011;59.912;30.300;2023-02-02T09:01:44;21.17;;;8.00;;
35917;SDS011;22011;59.912;30.300;2023-02-02T09:04:14;15.52;;;7.38;;
35917;SDS011;22011;59.912;30.300;2023-02-02T09:06:42;15.05;;;7.95;;
35917;SDS011;22011;59.912;30.300;2023-02-02T09:09:11;11.70;;;7.72;;
35917;SDS011;22011;59.912;30.300;2023-02-02T09:11:40;17.60;;;8.93;;
35917;SDS011;22011;59.912;30.300;2023-02-02T09:14:09;13.52;;;8.18;;
35917;SDS011;22011;59.912;30.300;2023-02-02T09:16:38;15.48;;;8.10;;
35917;SDS011;22011;59.912;30.300;2023-02-02T09:19:05;13.27;;;7.50;;
35917;SDS011;22011;59.912;30.300;2023-02-02T09:21:35;13.60;;;8.20;;
35917;SDS011;22011;59.912;30.300;2023-02-02T09:24:04;19.50;;;8.23;;
35917;SDS011;22011;59.912;30.300;2023-02-02T09:26:33;12.93;;;8.15;;
35917;SDS011;22011;59.912;30.300;2023-02-02T09:29:02;11.93;;;7.80;;
35917;SDS011;22011;59.912;30.300;2023-02-02T09:31:32;20.35;;;8.73;;
35917;SDS011;22011;59.912;30.300;2023-02-02T09:34:00;17.65;;;8.40;;
35917;SDS011;22011;59.912;30.300;2023-02-02T09:36:29;13.43;;;8.80;;
35917;SDS011;22011;59.912;30.300;2023-02-02T09:38:59;20.27;;;8.70;;
35917;SDS011;22011;59.912;30.300;2023-02-02T09:47:21;13.13;;;7.53;;
35917;SDS011;22011;59.912;30.300;2023-02-02T09:49:54;13.57;;;8.15;;
35917;SDS011;22011;59.912;30.300;2023-02-02T09:52:25;14.20;;;8.20;;
35917;SDS011;22011;59.912;30.300;2023-02-02T09:54:58;20.98;;;8.50;;
35917;SDS011;22011;59.912;30.300;2023-02-02T09:57:30;13.68;;;7.97;;
35917;SDS011;22011;59.912;30.300;2023-02-02T10:00:03;11.73;;;7.70;;
35917;SDS011;22011;59.912;30.300;2023-02-02T10:02:38;14.38;;;7.65;;
35917;SDS011;22011;59.912;30.300;2023-02-02T10:05:11;13.30;;;9.02;;
35917;SDS011;22011;59.912;30.300;2023-02-02T10:07:43;10.27;;;7.47;;
35917;SDS011;22011;59.912;30.300;2023-02-02T10:10:17;13.50;;;7.88;;
35917;SDS011;22011;59.912;30.300;2023-02-02T10:12:51;13.57;;;7.90;;
35917;SDS011;22011;59.912;30.300;2023-02-02T10:15:25;14.25;;;8.48;;
35917;SDS011;22011;59.912;30.300;2023-02-02T10:18:08;12.70;;;7.70;;
35917;SDS011;22011;59.912;30.300;2023-02-02T10:20:42;11.85;;;7.85;;
35917;SDS011;22011;59.912;30.300;2023-02-02T10:23:17;12.02;;;7.57;;
35917;SDS011;22011;59.912;30.300;2023-02-02T10:25:54;13.15;;;8.52;;
35917;SDS011;22011;59.912;30.300;2023-02-02T10:28:30;11.65;;;7.63;;
35917;SDS011;22011;59.912;30.300;2023-02-02T10:31:10;12.25;;;6.95;;
35917;SDS011;22011;59.912;30.300;2023-02-02T10:33:47;14.80;;;6.78;;
35917;SDS011;22011;59.912;30.300;2023-02-02T10:36:25;14.25;;;8.43;;
35917;SDS011;22011;59.912;30.300;2023-02-02T10:38:59;19.95;;;9.18;;
35917;SDS011;22011;59.912;30.300;2023-02-02T10:41:39;12.38;;;7.38;;
35917;SDS011;22011;59.912;30.300;2023-02-02T10:44:20;16.20;;;8.52;;
35917;SDS011;22011;59.912;30.300;2023-02-02T10:46:56;15.43;;;7.88;;
35917;SDS011;22011;59.912;30.300;2023-02-02T10:49:28;12.65;;;8.02;;
35917;SDS011;22011;59.912;30.300;2023-02-02T10:51:59;11.65;;;7.68;;
35917;SDS011;22011;59.912;30.300;2023-02-02T10:54:54;10.85;;;7.28;;
35917;SDS011;22011;59.912;30.300;2023-02-02T10:57:32;12.07;;;8.45;;
35917;SDS011;22011;59.912;30.300;2023-02-02T11:00:18;16.15;;;8.82;;
35917;SDS011;22011;59.912;30.300;2023-02-02T11:02:49;14.77;;;9.27;;
35917;SDS011;22011;59.912;30.300;2023-02-02T11:05:19;13.80;;;8.77;;
35917;SDS011;22011;59.912;30.300;2023-02-02T11:08:12;12.90;;;7.97;;
35917;SDS011;22011;59.912;30.300;2023-02-02T11:10:42;12.68;;;8.25;;
35917;SDS011;22011;59.912;30.300;2023-02-02T11:13:13;11.65;;;8.13;;
35917;SDS011;22011;59.912;30.300;2023-02-02T11:15:45;14.15;;;6.85;;
35917;SDS011;22011;59.912;30.300;2023-02-02T11:18:13;18.63;;;7.60;;
35917;SDS011;22011;59.912;30.300;2023-02-02T11:20:52;18.55;;;8.05;;
35917;SDS011;22011;59.912;30.300;2023-02-02T11:23:21;15.43;;;8.13;;
35917;SDS011;22011;59.912;30.300;2023-02-02T11:26:00;12.10;;;7.45;;
35917;SDS011;22011;59.912;30.300;2023-02-02T11:28:32;17.30;;;7.97;;
35917;SDS011;22011;59.912;30.300;2023-02-02T11:31:01;17.27;;;9.30;;
35917;SDS011;22011;59.912;30.300;2023-02-02T11:33:30;21.27;;;9.57;;
35917;SDS011;22011;59.912;30.300;2023-02-02T11:35:59;18.95;;;9.40;;
35917;SDS011;22011;59.912;30.300;2023-02-02T11:38:28;15.80;;;8.52;;
35917;SDS011;22011;59.912;30.300;2023-02-02T11:40:58;14.00;;;9.40;;
35917;SDS011;22011;59.912;30.300;2023-02-02T11:43:29;14.23;;;9.30;;
35917;SDS011;22011;59.912;30.300;2023-02-02T11:46:05;17.15;;;9.98;;
35917;SDS011;22011;59.912;30.300;2023-02-02T11:48:46;18.02;;;9.40;;
35917;SDS011;22011;59.912;30.300;2023-02-02T11:51:20;15.90;;;9.75;;
35917;SDS011;22011;59.912;30.300;2023-02-02T11:53:49;18.77;;;10.10;;
35917;SDS011;22011;59.912;30.300;2023-02-02T11:56:28;18.67;;;9.85;;
35917;SDS011;22011;59.912;30.300;2023-02-02T11:58:57;17.10;;;9.80;;
35917;SDS011;22011;59.912;30.300;2023-02-02T12:01:29;21.33;;;10.63;;
35917;SDS011;22011;59.912;30.300;2023-02-02T12:03:59;18.90;;;10.20;;
35917;SDS011;22011;59.912;30.300;2023-02-02T12:06:33;19.65;;;10.05;;
35917;SDS011;22011;59.912;30.300;2023-02-02T12:09:08;17.08;;;9.38;;
35917;SDS011;22011;59.912;30.300;2023-02-02T12:11:41;18.35;;;10.20;;
35917;SDS011;22011;59.912;30.300;2023-02-02T12:14:31;24.52;;;10.93;;
35917;SDS011;22011;59.912;30.300;2023-02-02T12:17:12;27.35;;;10.45;;
35917;SDS011;22011;59.912;30.300;2023-02-02T12:20:00;25.60;;;10.95;;
35917;SDS011;22011;59.912;30.300;2023-02-02T12:22:55;24.95;;;10.02;;
35917;SDS011;22011;59.912;30.300;2023-02-02T12:25:44;14.35;;;7.88;;
35917;SDS011;22011;59.912;30.300;2023-02-02T12:28:24;23.38;;;9.32;;
35917;SDS011;22011;59.912;30.300;2023-02-02T12:31:03;15.23;;;8.48;;
35917;SDS011;22011;59.912;30.300;2023-02-02T12:33:38;18.70;;;9.02;;
35917;SDS011;22011;59.912;30.300;2023-02-02T12:36:21;16.23;;;9.13;;
35917;SDS011;22011;59.912;30.300;2023-02-02T12:41:57;17.85;;;8.25;;
35917;SDS011;22011;59.912;30.300;2023-02-02T12:44:38;20.98;;;8.52;;
35917;SDS011;22011;59.912;30.300;2023-02-02T12:47:15;15.15;;;8.35;;
35917;SDS011;22011;59.912;30.300;2023-02-02T12:50:01;17.55;;;9.27;;
35917;SDS011;22011;59.912;30.300;2023-02-02T12:52:52;14.88;;;8.07;;
35917;SDS011;22011;59.912;30.300;2023-02-02T12:55:32;12.82;;;7.60;;
35917;SDS011;22011;59.912;30.300;2023-02-02T12:58:09;22.90;;;7.85;;
35917;SDS011;22011;59.912;30.300;2023-02-02T13:00:48;11.40;;;7.40;;
35917;SDS011;22011;59.912;30.300;2023-02-02T13:03:34;13.98;;;7.45;;
35917;SDS011;22011;59.912;30.300;2023-02-02T13:06:12;10.65;;;7.00;;
35917;SDS011;22011;59.912;30.300;2023-02-02T13:08:55;11.02;;;6.90;;
35917;SDS011;22011;59.912;30.300;2023-02-02T13:11:31;15.70;;;7.80;;
35917;SDS011;22011;59.912;30.300;2023-02-02T13:14:08;11.63;;;7.10;;
35917;SDS011;22011;59.912;30.300;2023-02-02T13:16:38;12.45;;;7.32;;
35917;SDS011;22011;59.912;30.300;2023-02-02T13:19:16;10.50;;;6.50;;
35917;SDS011;22011;59.912;30.300;2023-02-02T13:21:49;8.35;;;5.90;;
35917;SDS011;22011;59.912;30.300;2023-02-02T13:24:20;11.40;;;6.63;;
35917;SDS011;22011;59.912;30.300;2023-02-02T13:26:52;14.43;;;7.38;;
35917;SDS011;22011;59.912;30.300;2023-02-02T13:29:25;10.30;;;5.97;;
35917;SDS011;22011;59.912;30.300;2023-02-02T13:32:00;18.15;;;6.68;;
35917;SDS011;22011;59.912;30.300;2023-02-02T13:34:37;12.55;;;6.80;;
35917;SDS011;22011;59.912;30.300;2023-02-02T13:37:11;11.13;;;6.57;;
35917;SDS011;22011;59.912;30.300;2023-02-02T13:39:44;10.23;;;6.85;;
35917;SDS011;22011;59.912;30.300;2023-02-02T13:42:19;14.43;;;7.80;;
35917;SDS011;22011;59.912;30.300;2023-02-02T13:44:57;12.48;;;6.80;;
35917;SDS011;22011;59.912;30.300;2023-02-02T13:47:31;10.82;;;6.68;;
35917;SDS011;22011;59.912;30.300;2023-02-02T13:50:10;8.15;;;6.25;;
35917;SDS011;22011;59.912;30.300;2023-02-02T13:52:49;10.75;;;7.03;;
35917;SDS011;22011;59.912;30.300;2023-02-02T13:55:38;11.40;;;6.50;;
35917;SDS011;22011;59.912;30.300;2023-02-02T14:01:14;12.10;;;6.35;;
35917;SDS011;22011;59.912;30.300;2023-02-02T14:03:42;9.45;;;5.35;;
35917;SDS011;22011;59.912;30.300;2023-02-02T14:06:19;10.23;;;5.88;;
35917;SDS011;22011;59.912;30.300;2023-02-02T14:08:49;8.52;;;5.90;;
35917;SDS011;22011;59.912;30.300;2023-02-02T14:11:21;13.13;;;6.38;;
35917;SDS011;22011;59.912;30.300;2023-02-02T14:13:52;8.00;;;5.28;;
35917;SDS011;22011;59.912;30.300;2023-02-02T14:16:41;21.08;;;6.40;;
35917;SDS011;22011;59.912;30.300;2023-02-02T14:19:13;12.98;;;5.55;;
35917;SDS011;22011;59.912;30.300;2023-02-02T14:22:02;8.00;;;5.32;;
35917;SDS011;22011;59.912;30.300;2023-02-02T14:24:43;10.55;;;5.63;;
35917;SDS011;22011;59.912;30.300;2023-02-02T14:30:22;8.52;;;4.43;;
35917;SDS011;22011;59.912;30.300;2023-02-02T14:32:52;8.10;;;4.30;;
35917;SDS011;22011;59.912;30.300;2023-02-02T14:35:54;7.75;;;4.35;;
35917;SDS011;22011;59.912;30.300;2023-02-02T14:41:33;8.90;;;4.40;;
35917;SDS011;22011;59.912;30.300;2023-02-02T14:44:29;18.05;;;5.53;;
35917;SDS011;22011;59.912;30.300;2023-02-02T14:46:58;9.43;;;4.93;;
35917;SDS011;22011;59.912;30.300;2023-02-02T14:49:31;7.25;;;4.55;;
35917;SDS011;22011;59.912;30.300;2023-02-02T14:52:01;8.05;;;4.32;;
35917;SDS011;22011;59.912;30.300;2023-02-02T14:54:34;7.15;;;4.70;;
35917;SDS011;22011;59.912;30.300;2023-02-02T14:57:20;10.05;;;5.07;;
35917;SDS011;22011;59.912;30.300;2023-02-02T14:59:51;10.43;;;5.05;;
35917;SDS011;22011;59.912;30.300;2023-02-02T15:02:21;19.42;;;5.80;;
35917;SDS011;22011;59.912;30.300;2023-02-02T15:08:10;10.25;;;4.30;;
35917;SDS011;22011;59.912;30.300;2023-02-02T15:11:02;16.73;;;5.80;;
35917;SDS011;22011;59.912;30.300;2023-02-02T15:13:47;13.30;;;4.75;;
35917;SDS011;22011;59.912;30.300;2023-02-02T15:16:21;6.35;;;4.28;;
35917;SDS011;22011;59.912;30.300;2023-02-02T15:18:55;11.40;;;6.90;;